Time;durP1;ratioP1;P1;durP2;ratioP2;P2;SDS_P1;SDS_P2;PMS_P1;PMS_P2;Temp;Humidity;BMP_temperature;BMP_pressure;BME280_temperature;BME280_humidity;BME280_pressure;Samples;Min_cycle;Max_cycle;Signal;HPM_P1;HPM_P2
2022/04/18 00:01:09;;;;;;;5.37;3.02;;;;;;;1.51;85.42;99522.73;1736359;82;20973;-73
2022/04/18 00:03:38;;;;;;;6.40;3.30;;;;;;;1.51;85.80;99519.19;1735014;82;20964;-72
2022/04/18 00:06:07;;;;;;;5.92;3.10;;;;;;;1.50;85.50;99523.80;1735856;82;21450;-72
2022/04/18 00:08:36;;;;;;;7.70;3.27;;;;;;;1.51;85.43;99515.12;1735899;82;20861;-73
2022/04/18 00:11:05;;;;;;;7.25;3.45;;;;;;;1.49;85.29;99515.91;1735887;82;20972;-71
2022/04/18 00:13:31;;;;;;;7.45;3.10;;;;;;;1.52;85.34;99513.50;1736011;82;21103;-68
2022/04/18 00:15:58;;;;;;;7.25;3.42;;;;;;;1.56;85.30;99510.55;1735635;82;20984;-73
2022/04/18 00:18:26;;;;;;;6.58;3.52;;;;;;;1.57;85.04;99510.82;1715030;82;20957;-72
2022/04/18 00:20:58;;;;;;;6.30;3.30;;;;;;;1.58;85.01;99507.05;1735542;82;20932;-73
2022/04/18 00:23:25;;;;;;;5.65;3.35;;;;;;;1.61;84.95;99506.22;1735783;82;21426;-72
2022/04/18 00:25:54;;;;;;;9.23;3.40;;;;;;;1.62;84.73;99503.23;1735846;82;21161;-73
2022/04/18 00:28:24;;;;;;;7.50;3.58;;;;;;;1.57;84.45;99496.41;1735925;81;20944;-73
2022/04/18 00:30:51;;;;;;;13.13;3.52;;;;;;;1.56;84.54;99492.90;1736052;82;20973;-71
2022/04/18 00:33:20;;;;;;;15.63;5.05;;;;;;;1.58;84.55;99494.82;1735571;82;21041;-73
2022/04/18 00:35:50;;;;;;;10.10;3.95;;;;;;;1.58;84.28;99485.84;1735705;82;21540;-72
2022/04/18 00:38:18;;;;;;;9.03;4.12;;;;;;;1.52;83.99;99486.33;1735851;82;21118;-73
2022/04/18 00:40:46;;;;;;;7.75;4.20;;;;;;;1.48;83.94;99485.23;1735437;82;20929;-72
2022/04/18 00:43:13;;;;;;;9.05;4.05;;;;;;;1.50;84.08;99485.77;1735629;82;21064;-72
2022/04/18 00:45:40;;;;;;;5.87;3.83;;;;;;;1.54;83.95;99484.72;1735565;82;21533;-73
2022/04/18 00:48:07;;;;;;;8.03;3.55;;;;;;;1.51;83.79;99481.99;1735307;82;21497;-73
2022/04/18 00:50:37;;;;;;;7.65;4.05;;;;;;;1.47;83.68;99480.86;1735837;82;21339;-72
2022/04/18 00:53:06;;;;;;;7.65;4.03;;;;;;;1.37;83.75;99480.78;1664407;85;20990;-73
2022/04/18 00:55:33;;;;;;;6.25;3.90;;;;;;;1.36;84.03;99477.27;1652292;86;21030;-72
2022/04/18 00:58:01;;;;;;;7.70;3.92;;;;;;;1.36;84.28;99477.80;1652119;86;21694;-72
2022/04/18 01:00:31;;;;;;;9.00;4.05;;;;;;;1.42;84.70;99476.22;1652121;85;21049;-72
2022/04/18 01:02:59;;;;;;;10.63;3.65;;;;;;;1.50;84.56;99476.83;1652428;86;21123;-73
2022/04/18 01:05:28;;;;;;;8.43;4.40;;;;;;;1.52;84.43;99470.04;1652415;86;21019;-73
2022/04/18 01:07:57;;;;;;;5.72;3.80;;;;;;;1.55;84.24;99470.07;1630579;85;21025;-72
2022/04/18 01:10:25;;;;;;;9.15;3.58;;;;;;;1.52;83.99;99464.61;1671969;85;20941;-71
2022/04/18 01:12:55;;;;;;;7.92;3.42;;;;;;;1.52;83.97;99466.52;1648008;87;21036;-72
2022/04/18 01:15:26;;;;;;;7.53;3.22;;;;;;;1.53;84.16;99463.55;1649373;86;22002;-71
2022/04/18 01:18:06;;;;;;;7.08;3.72;;;;;;;1.57;84.15;99461.92;1651894;86;21014;-73
2022/04/18 01:20:36;;;;;;;5.87;2.92;;;;;;;1.61;84.03;99455.44;1623100;86;20982;-72
2022/04/18 01:23:07;;;;;;;5.17;3.33;;;;;;;1.66;83.89;99456.83;1627103;86;21053;-73
2022/04/18 01:29:06;;;;;;;5.70;3.47;;;;;;;1.71;83.43;99446.52;1652521;86;21067;-73
2022/04/18 01:31:38;;;;;;;6.80;3.45;;;;;;;1.64;83.26;99445.95;1652192;86;21027;-72
2022/04/18 01:34:08;;;;;;;7.67;3.08;;;;;;;1.55;83.08;99440.19;1633439;86;21502;-71
2022/04/18 01:36:37;;;;;;;3.77;2.80;;;;;;;1.52;83.27;99436.09;1652826;86;21125;-72
2022/04/18 01:39:22;;;;;;;5.40;3.67;;;;;;;1.50;83.28;99427.94;1645900;85;21014;-73
2022/04/18 01:41:51;;;;;;;5.70;3.12;;;;;;;1.49;83.23;99430.36;1633429;86;21179;-72
2022/04/18 01:44:18;;;;;;;9.80;3.87;;;;;;;1.46;83.18;99426.28;1652250;86;21018;-72
2022/04/18 01:46:48;;;;;;;6.53;3.45;;;;;;;1.41;83.06;99420.28;1652319;86;21026;-73
2022/04/18 01:49:15;;;;;;;9.68;3.30;;;;;;;1.40;83.32;99420.55;1652582;86;21030;-72
2022/04/18 01:51:45;;;;;;;4.60;3.15;;;;;;;1.43;83.22;99422.73;1652206;86;21530;-72
2022/04/18 01:54:11;;;;;;;8.40;3.00;;;;;;;1.47;83.36;99424.39;1652232;86;21629;-72
2022/04/18 01:56:40;;;;;;;6.12;3.72;;;;;;;1.43;83.08;99420.02;1652113;86;20962;-71
2022/04/18 01:59:11;;;;;;;4.70;3.00;;;;;;;1.41;83.15;99423.00;1652297;86;21006;-71
2022/04/18 02:01:38;;;;;;;6.25;3.50;;;;;;;1.41;83.11;99416.73;1618242;88;21513;-72
2022/04/18 02:04:06;;;;;;;7.80;3.42;;;;;;;1.38;83.09;99415.34;1672040;85;20975;-72
2022/04/18 02:06:34;;;;;;;4.42;2.92;;;;;;;1.43;83.44;99415.38;1652767;85;21166;-71
2022/04/18 02:09:05;;;;;;;5.17;3.50;;;;;;;1.44;83.26;99410.25;1671816;85;20902;-73
2022/04/18 02:11:37;;;;;;;7.05;3.25;;;;;;;1.45;83.31;99412.44;1618158;88;20874;-73
2022/04/18 02:14:03;;;;;;;6.65;3.92;;;;;;;1.49;83.26;99412.70;1652517;85;21006;-74
2022/04/18 02:16:33;;;;;;;7.97;4.00;;;;;;;1.41;83.06;99406.70;1618606;88;20946;-72
2022/04/18 02:19:01;;;;;;;6.08;3.60;;;;;;;1.40;83.20;99405.61;1672334;84;21542;-72
2022/04/18 02:21:27;;;;;;;7.47;3.70;;;;;;;1.44;83.44;99400.74;1618089;88;21505;-70
2022/04/18 02:23:54;;;;;;;8.08;4.08;;;;;;;1.47;83.36;99399.39;1672213;84;20982;-72
2022/04/18 02:26:20;;;;;;;9.40;3.70;;;;;;;1.48;83.30;99396.97;1618396;88;21073;-72
2022/04/18 02:28:49;;;;;;;8.50;3.75;;;;;;;1.55;83.50;99400.25;1671984;84;20974;-73
2022/04/18 02:31:17;;;;;;;7.45;3.05;;;;;;;1.61;83.52;99392.95;1671985;85;21597;-72
2022/04/18 02:33:45;;;;;;;6.87;3.27;;;;;;;1.66;83.43;99397.06;1671930;85;20990;-71
2022/04/18 02:36:13;;;;;;;6.95;3.35;;;;;;;1.73;83.37;99396.82;1630651;85;20967;-72
2022/04/18 02:38:39;;;;;;;6.65;3.65;;;;;;;1.78;83.26;99401.45;1618278;88;21020;-73
2022/04/18 02:41:07;;;;;;;10.25;3.52;;;;;;;1.76;82.97;99393.57;1624727;88;21099;-72
2022/04/18 02:43:37;;;;;;;8.53;3.55;;;;;;;1.76;82.97;99388.67;1591226;89;21513;-70
2022/04/18 02:46:16;;;;;;;7.70;3.50;;;;;;;1.81;83.04;99395.49;1617506;88;20961;-70
2022/04/18 02:48:55;;;;;;;6.67;4.25;;;;;;;1.76;82.56;99394.11;1672075;84;20978;-72
2022/04/18 02:51:27;;;;;;;5.80;3.37;;;;;;;1.67;82.38;99391.09;1617685;88;21021;-72
2022/04/18 02:53:55;;;;;;;5.67;3.67;;;;;;;1.56;82.39;99384.25;1624425;88;20973;-72
2022/04/18 02:56:26;;;;;;;6.25;3.50;;;;;;;1.52;82.50;99386.40;1587827;89;20920;-71
2022/04/18 02:58:52;;;;;;;7.67;3.22;;;;;;;1.51;82.63;99386.93;1618415;88;20981;-71
2022/04/18 03:01:24;;;;;;;6.45;3.27;;;;;;;1.50;82.58;99389.35;1678024;84;20992;-72
2022/04/18 03:03:56;;;;;;;6.70;3.47;;;;;;;1.50;82.59;99381.20;1687404;84;21124;-72
2022/04/18 03:06:25;;;;;;;7.30;3.40;;;;;;;1.50;82.60;99381.77;1705710;84;20881;-72
2022/04/18 03:08:52;;;;;;;4.42;3.22;;;;;;;1.46;82.55;99378.75;1686539;83;21414;-72
2022/04/18 03:11:21;;;;;;;5.60;3.20;;;;;;;1.41;82.45;99375.47;1706355;84;21044;-73
2022/04/18 03:13:47;;;;;;;7.95;3.58;;;;;;;1.33;82.31;99375.41;1706679;84;21524;-72
2022/04/18 03:16:18;;;;;;;5.47;3.85;;;;;;;1.30;82.54;99381.90;1705144;82;21401;-72
2022/04/18 03:18:49;;;;;;;7.22;3.70;;;;;;;1.30;82.81;99379.19;1706464;84;21492;-73
2022/04/18 03:21:20;;;;;;;4.00;3.65;;;;;;;1.32;82.79;99378.39;1706428;84;21372;-72
2022/04/18 03:23:53;;;;;;;6.62;3.47;;;;;;;1.37;82.92;99375.70;1706514;84;21026;-72
2022/04/18 03:26:25;;;;;;;9.25;3.75;;;;;;;1.39;82.76;99373.55;1704021;83;20952;-73
2022/04/18 03:28:57;;;;;;;5.87;3.45;;;;;;;1.42;82.88;99371.67;1700998;83;20945;-73
2022/04/18 03:31:24;;;;;;;7.80;3.62;;;;;;;1.44;82.67;99370.88;1708103;82;20929;-70
2022/04/18 03:33:52;;;;;;;7.15;3.25;;;;;;;1.41;82.56;99361.89;1724619;83;21082;-72
2022/04/18 03:41:52;;;;;;;4.28;3.58;;;;;;;1.35;82.83;99355.34;1724654;83;21460;-73
2022/04/18 03:44:19;;;;;;;6.08;3.62;;;;;;;1.41;82.68;99363.25;1724871;82;21054;-72
2022/04/18 03:46:47;;;;;;;5.10;3.15;;;;;;;1.41;82.61;99361.07;1724684;83;20966;-73
2022/04/18 03:49:18;;;;;;;8.68;3.50;;;;;;;1.37;82.68;99355.34;1704313;83;21448;-72
2022/04/18 03:51:47;;;;;;;7.65;3.92;;;;;;;1.43;82.93;99358.36;1724658;83;20983;-71
2022/04/18 03:54:14;;;;;;;7.58;3.72;;;;;;;1.52;82.92;99360.59;1723576;82;21414;-72
2022/04/18 03:56:42;;;;;;;9.50;3.98;;;;;;;1.58;82.94;99355.46;1706510;84;21549;-74
2022/04/18 03:59:11;;;;;;;7.17;3.80;;;;;;;1.64;82.84;99353.59;1706462;83;21137;-74
2022/04/18 04:01:51;;;;;;;7.17;3.67;;;;;;;1.69;82.37;99352.23;1704933;84;21540;-72
2022/04/18 04:04:18;;;;;;;8.93;3.70;;;;;;;1.60;82.15;99347.88;1706268;84;21531;-70
2022/04/18 04:06:50;;;;;;;6.40;4.45;;;;;;;1.55;81.97;99335.63;1706042;84;21008;-73
2022/04/18 04:09:22;;;;;;;7.45;4.40;;;;;;;1.51;82.21;99335.86;1686389;84;21056;-73
2022/04/18 04:11:48;;;;;;;5.15;3.90;;;;;;;1.47;82.08;99332.85;1706209;84;21477;-71
2022/04/18 04:14:20;;;;;;;9.08;4.72;;;;;;;1.42;82.25;99328.75;1706281;84;21569;-73
2022/04/18 04:16:51;;;;;;;5.85;4.00;;;;;;;1.44;82.43;99326.06;1706146;84;21536;-71
2022/04/18 04:19:19;;;;;;;4.90;3.47;;;;;;;1.49;82.50;99321.72;1706192;84;21502;-72
2022/04/18 04:25:10;;;;;;;9.03;3.92;;;;;;;1.56;82.46;99314.16;1648612;86;21080;-72
2022/04/18 04:27:39;;;;;;;9.23;4.03;;;;;;;1.43;82.12;99304.05;1651464;86;21123;-74
2022/04/18 04:30:07;;;;;;;5.25;3.55;;;;;;;1.37;82.26;99297.49;1651442;86;21473;-72
2022/04/18 04:32:40;;;;;;;5.50;3.50;;;;;;;1.42;82.67;99304.31;1649628;86;21629;-72
2022/04/18 04:35:08;;;;;;;7.10;4.08;;;;;;;1.41;82.41;99306.23;1651283;86;20995;-72
2022/04/18 04:37:49;;;;;;;8.93;4.33;;;;;;;1.44;82.51;99300.80;1649986;86;21602;-71
2022/04/18 04:40:19;;;;;;;9.30;5.10;;;;;;;1.43;82.43;99293.18;1648137;86;21060;-71
2022/04/18 04:42:49;;;;;;;7.92;4.30;;;;;;;1.48;82.49;99292.41;1651403;86;21084;-71
2022/04/18 04:45:16;;;;;;;5.33;3.27;;;;;;;1.52;82.54;99297.56;1629206;86;21038;-71
2022/04/18 04:48:01;;;;;;;7.65;3.98;;;;;;;1.59;82.70;99301.40;1706663;84;21064;-74
2022/04/18 04:50:31;;;;;;;6.80;3.92;;;;;;;1.64;82.47;99297.91;1728007;81;21240;-72
2022/04/18 04:53:00;;;;;;;7.40;4.08;;;;;;;1.57;82.09;99302.20;1748273;81;21467;-71
2022/04/18 04:55:29;;;;;;;8.95;3.90;;;;;;;1.51;82.29;99297.84;1743399;81;20985;-71
2022/04/18 04:57:58;;;;;;;10.15;4.28;;;;;;;1.55;82.66;99293.52;1752580;81;21059;-70
2022/04/18 05:00:48;;;;;;;6.85;4.17;;;;;;;1.64;82.58;99293.27;1718520;81;21063;-71
2022/04/18 05:03:21;;;;;;;8.33;4.33;;;;;;;1.61;82.25;99291.09;1716028;81;21323;-72
2022/04/18 05:05:48;;;;;;;5.87;3.85;;;;;;;1.63;82.41;99293.01;1742315;81;20985;-73
2022/04/18 05:08:32;;;;;;;5.08;3.87;;;;;;;1.71;82.75;99288.95;1720781;81;21011;-71
2022/04/18 05:11:02;;;;;;;7.30;3.95;;;;;;;1.86;82.87;99298.25;1673790;84;21019;-71
2022/04/18 05:13:52;;;;;;;7.22;4.50;;;;;;;1.96;82.42;99296.92;1680503;83;21018;-71
2022/04/18 05:16:22;;;;;;;5.40;3.42;;;;;;;1.96;81.74;99293.38;1681705;83;21490;-73
2022/04/18 05:18:51;;;;;;;9.58;5.28;;;;;;;1.95;81.96;99293.91;1687856;83;21057;-73
2022/04/18 05:21:18;;;;;;;6.15;3.67;;;;;;;1.93;81.39;99286.03;1679407;83;21105;-74
2022/04/18 05:23:46;;;;;;;7.42;3.70;;;;;;;1.90;81.42;99288.46;1741772;81;21032;-73
2022/04/18 05:26:19;;;;;;;7.95;3.60;;;;;;;1.86;81.23;99284.09;1679046;84;21008;-73
2022/04/18 05:28:46;;;;;;;6.42;4.25;;;;;;;1.91;81.38;99282.75;1675015;84;21480;-69
2022/04/18 05:31:17;;;;;;;4.47;3.70;;;;;;;1.91;81.15;99281.96;1679618;84;21566;-72
2022/04/18 05:33:45;;;;;;;8.48;4.08;;;;;;;1.94;81.21;99284.94;1684177;84;21554;-72
2022/04/18 05:36:21;;;;;;;7.17;4.33;;;;;;;1.97;80.94;99281.41;1670302;84;21048;-73
2022/04/18 05:38:50;;;;;;;5.95;3.80;;;;;;;2.05;81.27;99290.39;1685033;84;21065;-72
2022/04/18 05:41:18;;;;;;;5.67;3.77;;;;;;;2.14;81.49;99284.72;1685840;84;21833;-72
2022/04/18 05:43:46;;;;;;;6.53;3.87;;;;;;;2.19;80.81;99279.29;1683509;84;21070;-72
2022/04/18 05:46:13;;;;;;;4.90;3.42;;;;;;;2.20;80.54;99271.96;1736588;81;20985;-72
2022/04/18 05:48:42;;;;;;;8.35;4.15;;;;;;;2.21;80.74;99272.22;1739843;82;20929;-74
2022/04/18 05:51:11;;;;;;;6.30;4.10;;;;;;;2.26;80.34;99276.84;1738569;81;21013;-71
2022/04/18 05:53:38;;;;;;;7.78;4.47;;;;;;;2.27;80.25;99271.13;1738922;81;21870;-72
2022/04/18 05:56:13;;;;;;;5.33;3.87;;;;;;;2.31;80.09;99275.48;1737567;81;20949;-71
2022/04/18 05:58:47;;;;;;;7.22;3.98;;;;;;;2.36;80.27;99271.95;1725364;80;21554;-73
2022/04/18 06:01:35;;;;;;;7.42;4.40;;;;;;;2.37;79.97;99272.23;1714061;81;21462;-73
2022/04/18 06:04:06;;;;;;;9.73;4.20;;;;;;;2.38;80.06;99270.61;1738432;81;21035;-73
2022/04/18 06:06:33;;;;;;;5.03;4.00;;;;;;;2.48;80.20;99275.22;1661103;84;21238;-71
2022/04/18 06:09:00;;;;;;;6.60;4.00;;;;;;;2.52;79.45;99273.61;1706927;82;21227;-72
2022/04/18 06:11:30;;;;;;;5.30;3.72;;;;;;;2.41;78.96;99273.31;1723410;81;22483;-72
2022/04/18 06:13:58;;;;;;;8.13;4.03;;;;;;;2.35;79.05;99268.43;1703372;81;21560;-71
2022/04/18 06:16:26;;;;;;;6.10;4.10;;;;;;;2.29;78.92;99268.14;1742337;81;21806;-70
2022/04/18 06:18:54;;;;;;;11.30;5.10;;;;;;;2.30;79.47;99271.94;1674887;84;21521;-71
2022/04/18 06:21:23;;;;;;;4.72;3.42;;;;;;;2.40;79.43;99266.25;1691725;83;20989;-72
2022/04/18 06:23:53;;;;;;;5.78;4.42;;;;;;;2.43;79.11;99263.81;1727874;81;21011;-71
2022/04/18 06:26:41;;;;;;;10.45;3.77;;;;;;;2.48;79.15;99258.91;1670753;84;20983;-71
2022/04/18 06:29:08;;;;;;;7.50;4.00;;;;;;;2.60;79.45;99265.43;1706244;82;21089;-70
2022/04/18 06:31:38;;;;;;;4.40;3.40;;;;;;;2.71;79.08;99264.06;1723395;82;21034;-70
2022/04/18 06:34:18;;;;;;;5.25;3.80;;;;;;;2.80;79.00;99270.03;1654349;85;21063;-71
2022/04/18 06:36:45;;;;;;;6.58;4.33;;;;;;;2.86;78.15;99272.22;1719645;82;21002;-70
2022/04/18 06:42:36;;;;;;;;;;;;;;;2.68;76.90;99269.49;1723767;81;21084;-72
2022/04/18 06:45:05;;;;;;;7.10;3.70;;;;;;;2.64;76.50;99275.23;1722575;81;21838;-72
2022/04/18 06:47:34;;;;;;;5.90;3.80;;;;;;;2.62;76.34;99271.95;1723853;81;20992;-70
2022/04/18 06:50:08;;;;;;;9.05;4.22;;;;;;;2.66;76.31;99267.05;1726047;81;21073;-69
2022/04/18 06:52:41;;;;;;;8.63;4.22;;;;;;;2.71;76.20;99267.61;1726747;81;21099;-70
2022/04/18 06:55:11;;;;;;;7.00;4.05;;;;;;;2.74;75.88;99264.34;1723300;81;21036;-70
2022/04/18 06:57:40;;;;;;;5.78;4.08;;;;;;;2.77;76.08;99265.14;1732219;81;21059;-73
2022/04/18 07:00:11;;;;;;;8.25;3.85;;;;;;;2.80;75.24;99262.41;1726912;81;21550;-73
2022/04/18 07:02:50;;;;;;;6.90;4.70;;;;;;;2.83;75.25;99265.97;1732644;81;21048;-72
2022/04/18 07:05:20;;;;;;;7.03;4.25;;;;;;;2.88;75.25;99261.84;1732606;81;21091;-71
2022/04/18 07:08:11;;;;;;;7.42;4.33;;;;;;;2.89;75.16;99260.77;1740194;81;21013;-72
2022/04/18 07:10:38;;;;;;;6.45;4.58;;;;;;;2.96;75.26;99260.48;1725503;82;21586;-71
2022/04/18 07:13:05;;;;;;;8.53;4.45;;;;;;;3.03;75.08;99254.22;1728961;81;21643;-71
2022/04/18 07:15:39;;;;;;;6.72;4.45;;;;;;;3.18;75.53;99258.52;1733361;81;21481;-72
2022/04/18 07:18:08;;;;;;;5.80;3.63;;;;;;;3.36;75.50;99264.72;1732223;81;21491;-73
2022/04/18 07:20:46;;;;;;;5.72;4.20;;;;;;;3.39;73.48;99265.55;1709733;82;20942;-71
2022/04/18 07:23:30;;;;;;;5.87;3.42;;;;;;;3.29;73.17;99260.93;1725575;82;21042;-69
2022/04/18 07:26:01;;;;;;;5.08;3.47;;;;;;;3.41;73.89;99262.55;1724480;81;21107;-71
2022/04/18 07:28:31;;;;;;;5.42;4.50;;;;;;;3.51;73.44;99261.68;1734426;81;21012;-70
2022/04/18 07:31:01;;;;;;;6.17;4.40;;;;;;;3.52;73.08;99257.84;1728998;81;21333;-71
2022/04/18 07:33:35;;;;;;;4.20;3.07;;;;;;;3.49;72.57;99257.05;1722689;82;20996;-71
2022/04/18 07:36:07;;;;;;;9.20;5.03;;;;;;;3.43;72.10;99262.27;1733741;81;21125;-71
2022/04/18 07:38:50;;;;;;;6.47;4.50;;;;;;;3.34;71.92;99256.03;1730690;80;21046;-70
2022/04/18 07:41:26;;;;;;;5.95;4.47;;;;;;;3.36;71.96;99253.82;1734897;81;21042;-70
2022/04/18 07:43:55;;;;;;;6.30;4.22;;;;;;;3.31;71.87;99253.05;1734987;81;21003;-70
2022/04/18 07:46:23;;;;;;;7.37;4.42;;;;;;;3.35;72.31;99254.92;1710318;82;21188;-70
2022/04/18 07:48:53;;;;;;;7.25;4.25;;;;;;;3.38;72.33;99250.28;1733223;81;21420;-71
2022/04/18 07:51:42;;;;;;;6.40;4.35;;;;;;;3.44;72.41;99248.90;1688582;83;21063;-69
2022/04/18 07:54:14;;;;;;;6.55;4.25;;;;;;;3.47;72.83;99250.52;1693950;83;20995;-72
2022/04/18 07:56:43;;;;;;;6.62;3.83;;;;;;;3.51;73.25;99246.70;1673172;84;21538;-71
2022/04/18 07:59:11;;;;;;;6.70;3.87;;;;;;;3.60;73.14;99249.66;1699000;84;21089;-69
2022/04/18 08:01:40;;;;;;;5.62;4.05;;;;;;;3.59;72.24;99251.56;1698903;84;20999;-69
2022/04/18 08:04:12;;;;;;;8.00;4.17;;;;;;;3.62;72.60;99247.44;1699096;84;20943;-71
2022/04/18 08:06:44;;;;;;;8.35;4.55;;;;;;;3.75;72.64;99248.19;1699316;83;21086;-69
2022/04/18 08:09:16;;;;;;;6.97;4.87;;;;;;;3.90;72.22;99241.03;1756036;81;21422;-70
2022/04/18 08:11:43;;;;;;;11.22;4.30;;;;;;;4.09;72.44;99241.20;1755967;81;21016;-70
2022/04/18 08:14:14;;;;;;;6.72;3.70;;;;;;;4.36;72.31;99236.34;1756050;80;21105;-72
2022/04/18 08:16:46;;;;;;;4.80;3.00;;;;;;;4.48;70.60;99238.70;1737353;82;20916;-70
2022/04/18 08:19:23;;;;;;;5.15;3.12;;;;;;;4.40;68.57;99235.23;1736013;81;21019;-75
2022/04/18 08:21:50;;;;;;;7.53;4.55;;;;;;;4.38;69.20;99230.86;1708245;83;20971;-74
2022/04/18 08:24:17;;;;;;;11.10;4.50;;;;;;;4.50;69.54;99227.75;1696051;84;20988;-73
2022/04/18 08:26:57;;;;;;;7.25;3.77;;;;;;;4.63;68.28;99228.20;1671854;85;21003;-73
2022/04/18 08:29:28;;;;;;;5.87;3.42;;;;;;;4.66;68.37;99226.25;1685404;84;21137;-71
2022/04/18 08:32:06;;;;;;;8.03;4.10;;;;;;;4.61;67.38;99224.39;1675240;85;20974;-73
2022/04/18 08:34:36;;;;;;;5.40;3.72;;;;;;;4.56;67.25;99221.71;1685764;85;20915;-72
2022/04/18 08:37:08;;;;;;;5.65;3.95;;;;;;;4.58;67.85;99225.52;1680704;85;21003;-72
2022/04/18 08:39:41;;;;;;;4.50;3.08;;;;;;;4.60;67.66;99221.41;1680355;83;21014;-72
2022/04/18 08:42:12;;;;;;;5.05;3.72;;;;;;;4.70;68.26;99228.69;1679913;83;21014;-71
2022/04/18 08:44:43;;;;;;;7.22;4.50;;;;;;;4.79;67.32;99224.78;1684453;83;21026;-70
2022/04/18 08:52:43;;;;;;;5.00;3.60;;;;;;;4.79;67.52;99219.33;1681983;83;21007;-71
2022/04/18 08:52:44;;;;;;;4.83;3.17;;;;;;;4.72;66.81;99209.29;1654658;85;21551;-72
2022/04/18 08:55:32;;;;;;;7.22;3.35;;;;;;;4.73;66.21;99206.81;1669669;85;20958;-70
2022/04/18 08:58:06;;;;;;;5.58;3.30;;;;;;;4.69;65.83;99212.03;1675127;84;21015;-71
2022/04/18 09:00:34;;;;;;;4.60;3.05;;;;;;;4.74;66.21;99207.09;1659694;84;21911;-73
2022/04/18 09:03:03;;;;;;;6.45;3.37;;;;;;;4.87;65.67;99210.50;1679761;84;20937;-71
2022/04/18 09:05:37;;;;;;;4.87;3.20;;;;;;;4.79;65.37;99202.94;1671323;84;21108;-70
2022/04/18 09:08:07;;;;;;;3.85;2.85;;;;;;;4.79;65.18;99201.58;1668889;83;21415;-71
2022/04/18 09:10:39;;;;;;;3.12;2.62;;;;;;;4.89;66.00;99203.92;1704672;82;21074;-71
2022/04/18 09:13:09;;;;;;;5.12;3.40;;;;;;;5.08;65.97;99196.59;1656722;84;21020;-74
2022/04/18 09:15:58;;;;;;;4.90;3.55;;;;;;;5.28;65.87;99205.66;1667879;83;21068;-73
2022/04/18 09:18:29;;;;;;;11.97;3.92;;;;;;;5.43;65.74;99198.36;1634853;85;21016;-71
2022/04/18 09:21:07;;;;;;;9.40;4.08;;;;;;;5.42;64.87;99198.12;1681972;83;21053;-74
2022/04/18 09:23:39;;;;;;;6.30;3.90;;;;;;;5.32;64.48;99196.34;1659821;83;21063;-72
2022/04/18 09:26:15;;;;;;;4.97;4.08;;;;;;;5.18;63.66;99194.86;1682351;83;21027;-71
2022/04/18 09:28:42;;;;;;;10.10;4.42;;;;;;;4.92;63.56;99199.24;1669304;84;21544;-72
2022/04/18 09:31:13;;;;;;;7.12;4.72;;;;;;;4.70;63.82;99195.93;1680655;83;21137;-72
2022/04/18 09:33:45;;;;;;;7.90;4.72;;;;;;;4.60;64.02;99194.66;1660742;85;21014;-72
2022/04/18 09:36:16;;;;;;;7.10;4.37;;;;;;;4.47;64.38;99189.34;1684133;83;20996;-74
2022/04/18 09:38:48;;;;;;;5.70;4.22;;;;;;;4.37;64.50;99192.41;1647328;83;21574;-75
2022/04/18 09:41:26;;;;;;;11.30;4.85;;;;;;;4.27;65.06;99187.04;1636786;85;20969;-73
2022/04/18 09:43:55;;;;;;;7.28;4.45;;;;;;;4.29;65.46;99193.03;1686737;82;21498;-74
2022/04/18 09:46:24;;;;;;;10.58;5.78;;;;;;;4.38;65.86;99194.02;1667540;84;21320;-72
2022/04/18 09:48:54;;;;;;;13.38;4.45;;;;;;;4.52;65.98;99188.47;1682104;83;21483;-72
2022/04/18 09:51:27;;;;;;;8.33;4.25;;;;;;;4.65;65.51;99185.06;1679129;83;21318;-73
2022/04/18 09:54:00;;;;;;;9.45;4.30;;;;;;;4.69;65.05;99185.30;1674407;83;21008;-72
2022/04/18 09:56:27;;;;;;;4.10;3.05;;;;;;;4.67;64.63;99182.86;1681377;83;21654;-73
2022/04/18 09:58:55;;;;;;;6.90;3.95;;;;;;;4.68;64.05;99178.20;1675889;83;21042;-73
2022/04/18 10:02:15;;;;;;;5.47;3.83;;;;;;;4.63;64.10;99177.16;1642427;85;21023;-72
2022/04/18 10:08:12;;;;;;;5.83;3.58;;;;;;;4.81;64.08;99178.08;1716657;80;20993;-71
2022/04/18 10:10:41;;;;;;;6.35;3.72;;;;;;;4.72;63.69;99184.18;1698553;82;21094;-73
2022/04/18 10:13:10;;;;;;;7.85;4.33;;;;;;;4.59;63.97;99177.47;1733700;81;21445;-73
2022/04/18 10:15:39;;;;;;;5.08;3.42;;;;;;;4.61;64.50;99179.36;1691470;83;21069;-73
2022/04/18 10:18:10;;;;;;;4.70;3.60;;;;;;;4.72;64.61;99180.63;1686558;83;21029;-72
2022/04/18 10:21:08;;;;;;;7.42;4.47;;;;;;;4.74;64.05;99179.22;1681874;83;21199;-72
2022/04/18 10:24:21;;;;;;;10.85;4.03;;;;;;;4.68;64.22;99175.47;1695407;82;21933;-71
2022/04/18 10:27:00;;;;;;;5.55;2.80;;;;;;;4.70;64.26;99170.00;1730473;81;21023;-71
2022/04/18 10:29:35;;;;;;;5.90;3.80;;;;;;;4.77;63.80;99171.56;1727885;81;21550;-71
2022/04/18 10:32:05;;;;;;;5.92;3.80;;;;;;;4.78;63.82;99174.57;1727776;81;21462;-71
2022/04/18 10:34:34;;;;;;;8.78;3.80;;;;;;;4.83;63.04;99179.41;1666008;84;20954;-71
2022/04/18 10:37:05;;;;;;;5.95;3.30;;;;;;;4.79;63.24;99177.01;1712209;81;20995;-72
2022/04/18 10:39:38;;;;;;;4.92;3.00;;;;;;;4.82;63.36;99180.52;1725709;81;21432;-72
2022/04/18 10:42:59;;;;;;;5.72;3.15;;;;;;;4.94;63.95;99177.92;1727143;81;21072;-72
2022/04/18 10:45:40;;;;;;;5.20;3.42;;;;;;;5.11;64.10;99180.19;1729254;81;21036;-70
2022/04/18 10:48:11;;;;;;;8.80;4.15;;;;;;;5.31;63.57;99175.02;1731525;81;21481;-75
2022/04/18 10:50:45;;;;;;;8.78;4.00;;;;;;;5.26;62.29;99177.00;1735030;81;21045;-73
2022/04/18 10:53:34;;;;;;;8.95;4.50;;;;;;;5.11;62.82;99182.38;1732893;81;20945;-72
2022/04/18 10:56:08;;;;;;;7.47;3.98;;;;;;;5.06;63.14;99176.98;1728109;81;21461;-73
2022/04/18 10:58:35;;;;;;;8.03;4.05;;;;;;;5.13;63.44;99177.98;1734652;81;21544;-72
2022/04/18 11:01:05;;;;;;;4.67;3.45;;;;;;;5.20;63.35;99176.27;1730339;81;21492;-70
2022/04/18 11:03:51;;;;;;;5.10;2.87;;;;;;;5.20;63.39;99178.42;1712687;82;20928;-71
2022/04/18 11:06:38;;;;;;;4.30;2.62;;;;;;;5.23;63.30;99175.67;1729054;81;37523;-72
2022/04/18 11:09:13;;;;;;;3.47;2.58;;;;;;;5.16;62.95;99182.04;1736852;81;21002;-72
2022/04/18 11:12:08;;;;;;;2.77;2.10;;;;;;;5.05;62.71;99180.80;1728464;81;21069;-70
2022/04/18 11:14:52;;;;;;;3.17;2.27;;;;;;;4.95;62.06;99178.17;1731233;81;21009;-72
2022/04/18 11:17:31;;;;;;;3.52;2.33;;;;;;;4.82;62.01;99172.33;1730109;81;21276;-73
2022/04/18 11:20:27;;;;;;;3.80;2.45;;;;;;;4.73;61.96;99169.41;1733011;81;21001;-73
2022/04/18 11:23:33;;;;;;;3.83;2.67;;;;;;;4.76;62.69;99172.10;1717492;81;21067;-71
2022/04/18 11:26:03;;;;;;;4.10;2.98;;;;;;;4.84;62.89;99172.03;1728705;82;21058;-73
2022/04/18 11:28:41;;;;;;;4.03;2.95;;;;;;;4.89;62.96;99166.52;1728761;82;21071;-73
2022/04/18 11:31:11;;;;;;;6.75;3.92;;;;;;;4.98;62.78;99172.16;1731026;81;21846;-74
2022/04/18 11:33:42;;;;;;;8.55;4.60;;;;;;;4.96;62.51;99168.36;1735953;81;21047;-73
2022/04/18 11:36:11;;;;;;;8.75;4.08;;;;;;;4.98;62.98;99167.48;1733619;81;21069;-75
2022/04/18 11:38:40;;;;;;;8.50;3.90;;;;;;;5.07;63.42;99170.39;1728385;81;20994;-74
2022/04/18 11:41:11;;;;;;;8.80;4.42;;;;;;;5.19;63.08;99161.78;1737311;81;21053;-74
2022/04/18 11:43:38;;;;;;;9.55;4.03;;;;;;;5.26;62.62;99162.80;1746811;81;22160;-74
2022/04/18 11:46:07;;;;;;;10.08;4.97;;;;;;;5.27;62.19;99158.94;1747838;81;21774;-71
2022/04/18 11:48:52;;;;;;;6.75;3.85;;;;;;;5.32;62.51;99154.78;1743915;81;20961;-70
2022/04/18 11:51:46;;;;;;;7.90;4.47;;;;;;;5.49;62.14;99156.22;1723933;81;21066;-72
2022/04/18 11:54:15;;;;;;;9.63;5.10;;;;;;;5.62;61.84;99156.56;1737793;81;20949;-74
2022/04/18 11:56:43;;;;;;;10.88;4.90;;;;;;;5.74;62.09;99162.41;1749546;81;21267;-73
2022/04/18 11:59:09;;;;;;;9.60;4.65;;;;;;;5.79;60.96;99153.31;1743267;81;21017;-74
2022/04/18 12:07:16;;;;;;;10.80;4.50;;;;;;;5.92;60.70;99154.50;1682255;84;21166;-73
2022/04/18 12:09:43;;;;;;;8.60;4.12;;;;;;;5.96;61.29;99141.30;1682993;83;21151;-73
2022/04/18 12:12:27;;;;;;;9.50;4.70;;;;;;;6.04;60.93;99143.89;1732933;81;21051;-73
2022/04/18 12:15:05;;;;;;;10.13;4.17;;;;;;;6.07;60.94;99139.21;1647789;84;21088;-73
2022/04/18 12:17:35;;;;;;;9.85;4.42;;;;;;;6.15;60.80;99135.55;1643047;85;21042;-73
2022/04/18 12:20:29;;;;;;;9.05;4.78;;;;;;;6.11;59.19;99126.33;1673345;84;21151;-74
2022/04/18 12:23:03;;;;;;;8.67;4.13;;;;;;;5.97;59.43;99127.86;1713435;82;21117;-71
2022/04/18 12:25:33;;;;;;;10.55;4.80;;;;;;;5.93;59.13;99127.40;1711327;82;21122;-74
2022/04/18 12:28:04;;;;;;;9.58;5.22;;;;;;;5.80;59.30;99129.77;1717009;82;21056;-72
2022/04/18 12:30:32;;;;;;;6.83;4.47;;;;;;;5.80;60.40;99135.23;1650728;85;21551;-74
2022/04/18 12:33:20;;;;;;;10.53;5.00;;;;;;;5.91;60.27;99137.27;1721354;81;21135;-75